Data for 03/03/2007

Time Sea-Level Adjusted Pressure Absolute Pressure Temperature Relative Humidity Dew Point   
(mb) (inHg) (mb) (inHg) (C) (F) (%) (C) (F)
00:05 1025 30.27 854 25.22 -9.5 14.8 56 -16.7 1.9
00:10 1025 30.27 854 25.22 -10 14.1 57 -16.9 1.5
00:15 1025 30.27 854 25.22 -10.5 13.2 59 -17 1.4
00:20 1025 30.27 854 25.22 -10.5 13 59 -17.2 1.1
00:25 1025 30.27 854 25.22 -10.3 13.6 58 -17.1 1.3
00:30 1025 30.27 854 25.22 -10.6 13 60 -17 1.4
00:35 1025 30.27 854 25.22 -10.9 12.4 60 -17.3 0.9
00:40 1025 30.27 854 25.22 -11 12.1 61 -17.1 1.1
00:45 1025 30.27 854 25.22 -11 12.2 62 -17 1.3
00:50 1025 30.27 854 25.22 -10.7 12.7 59 -17.2 1
00:55 1025 30.27 854 25.22 -10.6 12.9 59 -17.2 1.1
01:00 1025 30.27 854 25.22 -10.9 12.4 60 -17.2 1
01:05 1025 30.27 854 25.22 -11 12.2 60 -17.3 0.9
01:10 1025 30.27 854 25.22 -11.4 11.4 62 -17.3 0.9
01:15 1025 30.27 854 25.22 -11.3 11.8 61 -17.5 0.6
01:20 1025 30.27 854 25.22 -10.9 12.4 60 -17.3 0.9
01:25 1025 30.27 854 25.22 -11 12.2 61 -17.1 1.1
01:30 1025 30.27 854 25.22 -10.8 12.5 59 -17.3 0.9
01:35 1025 30.27 854 25.22 -10.8 12.6 59 -17.3 0.8
01:40 1025 30.27 854 25.22 -11 12.1 60 -17.3 0.9
01:45 1025 30.27 854 25.22 -11.2 11.8 65 -16.5 2.3
01:50 1025 30.27 854 25.22 -11.3 11.6 63 -17.1 1.2
01:55 1025 30.27 854 25.22 -11.4 11.4 62 -17.4 0.7
02:00 1025 30.27 854 25.22 -11 12.2 59 -17.4 0.6
02:05 1025 30.27 854 25.22 -10.7 12.8 58 -17.4 0.8
02:10 1025 30.27 854 25.22 -10.6 12.9 57 -17.5 0.5
02:15 1025 30.27 854 25.22 -11.3 11.6 60 -17.6 0.4
02:20 1025 30.27 854 25.22 -11.8 10.8 61 -17.9 -0.1
02:25 1025 30.27 854 25.22 -11.8 10.7 62 -17.7 0.1
02:30 1025 30.27 854 25.22 -12 10.3 63 -17.8 -0
02:35 1025 30.27 854 25.22 -12.4 9.7 65 -17.7 0.1
02:40 1025 30.27 854 25.22 -12.3 9.8 64 -17.9 -0.2
02:45 1025 30.27 854 25.22 -12.2 10.1 66 -17.3 0.9
02:50 1025 30.27 854 25.22 -12.1 10.2 64 -17.7 0.2
02:55 1025 30.27 854 25.22 -12.3 9.8 65 -17.6 0.3
03:00 1025 30.27 854 25.22 -12.2 10.1 64 -17.7 0.2
03:05 1025 30.27 854 25.22 -12.2 10 64 -17.7 0.2
03:10 1025 30.27 854 25.22 -12.3 9.9 64 -17.8 -0.1
03:15 1025 30.27 854 25.22 -12.2 10.1 63 -17.9 -0.3
03:20 1025 30.27 854 25.22 -11.5 11.2 60 -17.8 -0
03:25 1025 30.27 854 25.22 -11.5 11.4 60 -17.7 0.1
03:30 1025 30.27 854 25.22 -12 10.5 63 -17.6 0.3
03:35 1025 30.27 854 25.22 -12.5 9.5 65 -17.7 0.1
03:40 1025 30.27 854 25.22 -12.5 9.4 66 -17.6 0.3
03:45 1025 30.27 854 25.22 -12.3 9.9 65 -17.6 0.4
03:50 1025 30.27 854 25.22 -12.6 9.3 67 -17.6 0.4
03:55 1025 30.27 854 25.22 -12.6 9.4 65 -17.9 -0.2
04:00 1025 30.27 854 25.22 -12.7 9.2 66 -17.7 0.1
04:05 1025 30.27 854 25.22 -12.6 9.4 65 -17.8 -0.1
04:10 1025 30.27 854 25.22 -12.2 10.1 63 -17.8 -0.1
04:15 1025 30.27 854 25.22 -11.8 10.8 62 -17.6 0.3
04:20 1025 30.27 854 25.22 -11.7 10.9 62 -17.7 0.2
04:25 1025 30.27 854 25.22 -11.5 11.4 62 -17.4 0.6
04:30 1025 30.27 854 25.22 -11.4 11.4 61 -17.6 0.3
04:35 1025 30.27 854 25.22 -11.5 11.2 62 -17.4 0.7
04:40 1025 30.27 854 25.22 -11.7 10.9 64 -17.2 1.1
04:45 1025 30.27 854 25.22 -11.3 11.6 65 -16.7 1.9
04:50 1025 30.27 854 25.22 -11.3 11.8 64 -16.7 1.9
04:55 1025 30.27 854 25.22 -11.3 11.6 62 -17.2 1.1
05:00 1025 30.27 854 25.22 -10.6 12.8 59 -17.1 1.1
05:05 1025 30.27 854 25.22 -10.5 13.1 60 -16.9 1.7
05:10 1025 30.27 854 25.22 -10.4 13.3 60 -16.7 1.9
05:15 1025 30.27 854 25.22 -10.3 13.5 62 -16.3 2.7
05:20 1025 30.27 855 25.25 -10.3 13.5 59 -16.7 1.9
05:25 1025 30.27 855 25.25 -10.3 13.5 60 -16.7 2
05:30 1025 30.27 855 25.25 -9.6 14.7 55 -17.1 1.1
05:35 1025 30.27 855 25.25 -9 15.8 54 -16.8 1.8
05:40 1025 30.27 855 25.25 -8.8 16.1 54 -16.6 2
05:45 1025 30.27 855 25.25 -8.8 16.3 53 -16.6 2.1
05:50 1025 30.27 855 25.25 -8.9 16 53 -16.7 1.9
05:55 1025 30.27 855 25.25 -8.9 16 54 -16.6 2.1
06:00 1025 30.27 855 25.25 -8.8 16.2 57 -15.8 3.6
06:05 1025 30.27 855 25.25 -8.7 16.3 54 -16.4 2.4
06:10 1025 30.27 855 25.25 -8.5 16.7 53 -16.4 2.5
06:15 1025 30.27 855 25.25 -8.6 16.6 59 -15.3 4.5
06:20 1025 30.27 855 25.25 -9.2 15.4 63 -15 5
06:25 1025 30.27 855 25.25 -9.3 15.2 59 -16 3.3
06:30 1025 30.27 855 25.25 -9.3 15.3 56 -16.4 2.4
06:35 1025 30.27 855 25.25 -9.1 15.6 54 -16.8 1.7
06:40 1025 30.27 855 25.25 -9 15.9 55 -16.4 2.5
06:45 1025 30.27 854 25.22 -8.8 16.2 58 -15.6 4
06:50 1025 30.27 854 25.22 -8.4 16.9 59 -15.2 4.7
06:55 1025 30.27 854 25.22 -7.9 17.8 58 -14.8 5.3
07:00 1025 30.27 854 25.22 -7.8 17.9 59 -14.5 5.8
07:05 1025 30.27 854 25.22 -8 17.6 59 -14.7 5.5
07:10 1025 30.27 854 25.22 -7.7 18.2 55 -15.2 4.7
07:15 1025 30.27 854 25.22 -7.2 19 57 -14.4 6
07:20 1025 30.27 854 25.22 -7.5 18.6 56 -14.9 5.2
07:25 1025 30.27 854 25.22 -7.2 19 52 -15.4 4.2
07:30 1025 30.27 854 25.22 -6.8 19.8 53 -15 5.1
07:35 1025 30.27 854 25.22 -6.8 19.8 56 -14.1 6.5
07:40 1025 30.27 854 25.22 -7 19.3 56 -14.4 6
07:45 1025 30.27 854 25.22 -6.8 19.7 56 -14.2 6.4
07:50 1025 30.27 854 25.22 -6.6 20.1 53 -14.6 5.7
07:55 1025 30.27 854 25.22 -6.7 19.9 55 -14.2 6.4
08:00 1025 30.27 854 25.22 -6.7 19.9 55 -14.3 6.3
08:05 1025 30.27 854 25.22 -6.5 20.3 54 -14.5 6
08:10 1025 30.27 854 25.22 -6.4 20.4 54 -14.2 6.4
08:15 1025 30.27 854 25.22 -6.5 20.3 54 -14.3 6.2
08:20 1025 30.27 855 25.25 -6.4 20.4 55 -14 6.7
08:25 1025 30.27 855 25.25 -6 21.2 54 -13.9 7.1
08:30 1025 30.27 855 25.25 -5.4 22.3 51 -14.1 6.6
08:35 1025 30.27 855 25.25 -5.3 22.5 52 -13.6 7.6
08:40 1026 30.3 855 25.25 -5 22.9 51 -13.6 7.4
08:45 1026 30.3 855 25.25 -5.1 22.9 52 -13.6 7.6
08:50 1026 30.3 855 25.25 -4.9 23.2 53 -13.2 8.2
08:55 1026 30.3 855 25.25 -4.8 23.4 54 -12.8 8.9
09:00 1026 30.3 855 25.25 -4.8 23.4 52 -13.1 8.4
09:05 1026 30.3 855 25.25 -4.5 23.9 51 -13.1 8.4
09:10 1026 30.3 855 25.25 -4.9 23.2 54 -12.8 9
09:15 1026 30.3 855 25.25 -5.8 21.5 59 -12.6 9.3
09:20 1026 30.3 855 25.25 -5.8 21.5 59 -12.6 9.2
09:25 1026 30.3 855 25.25 -5.4 22.3 57 -12.7 9.2
09:30 1026 30.3 855 25.25 -4.8 23.4 54 -12.8 9
09:35 1026 30.3 855 25.25 -4.6 23.8 53 -12.9 8.8
09:40 1026 30.3 855 25.25 -4.4 24.1 53 -12.7 9.1
09:45 1026 30.3 855 25.25 -4.5 24 55 -12.3 9.8
09:50 1026 30.3 855 25.25 -4.3 24.2 55 -12 10.4
09:55 1026 30.3 855 25.25 -4.1 24.6 55 -11.8 10.7
10:00 1026 30.3 855 25.25 -3.8 25.2 56 -11.3 11.7
10:05 1026 30.3 855 25.25 -3.5 25.8 57 -10.9 12.4
10:10 1026 30.3 855 25.25 -3.3 26.1 57 -10.6 13
10:15 1026 30.3 855 25.25 -3 26.6 55 -10.7 12.7
10:20 1026 30.3 855 25.25 -3.2 26.3 56 -10.7 12.8
10:25 1026 30.3 855 25.25 -2.7 27.2 54 -10.8 12.5
10:30 1026 30.3 855 25.25 -2.2 28 51 -10.9 12.3
10:35 1026 30.3 855 25.25 -2 28.4 51 -10.9 12.4
10:40 1026 30.3 855 25.25 -1.9 28.6 50 -10.9 12.3
10:45 1026 30.3 855 25.25 -1.5 29.4 49 -10.8 12.5
10:50 1026 30.3 855 25.25 -1.3 29.6 49 -10.6 12.9
10:55 1026 30.3 855 25.25 -1.4 29.5 48 -10.9 12.4
11:00 1026 30.3 855 25.25 -1.3 29.6 49 -10.8 12.6
11:05 1026 30.3 855 25.25 -1.3 29.6 49 -10.7 12.7
11:10 1026 30.3 855 25.25 -1.1 30 49 -10.6 12.8
11:15 1026 30.3 855 25.25 -1 30.1 49 -10.5 13.2
11:20 1026 30.3 855 25.25 -0.8 30.5 49 -10.4 13.4
11:25 1026 30.3 855 25.25 -0.8 30.6 48 -10.5 13.1
11:30 1026 30.3 855 25.25 -0.7 30.8 48 -10.3 13.5
11:35 1026 30.3 855 25.25 -0.6 30.8 47 -10.6 12.8
11:40 1026 30.3 855 25.25 -0.5 31.2 47 -10.3 13.4
11:45 1026 30.3 855 25.25 -0.8 30.6 49 -10.1 13.8
11:50 1026 30.3 855 25.25 -1.6 29.2 50 -10.6 13
11:55 1026 30.3 855 25.25 -1.6 29.1 50 -10.7 12.7
12:00 1026 30.3 855 25.25 -1.4 29.4 51 -10.3 13.5
12:05 1026 30.3 855 25.25 -1.6 29.2 51 -10.4 13.3
12:10 1026 30.3 855 25.25 -1.8 28.8 51 -10.6 13
12:15 1026 30.3 855 25.25 -1.6 29.2 50 -10.6 12.9
12:20 1026 30.3 855 25.25 -1.3 29.6 48 -10.9 12.4
12:25 1026 30.3 855 25.25 -1.2 29.8 49 -10.7 12.7
12:30 1026 30.3 855 25.25 -1 30.2 47 -10.9 12.3
12:35 1026 30.3 855 25.25 -0.6 30.9 47 -10.7 12.7
12:40 1026 30.3 855 25.25 -0.2 31.6 46 -10.5 13.1
12:45 1026 30.3 855 25.25 0.4 32.7 44 -10.4 13.3
12:50 1026 30.3 855 25.25 0.8 33.4 43 -10.5 13.1
12:55 1026 30.3 855 25.25 0.9 33.7 44 -10.1 13.9
13:00 1026 30.3 855 25.25 0.7 33.2 45 -10 14
13:05 1025 30.27 855 25.25 0.7 33.3 44 -10.3 13.4
13:10 1025 30.27 855 25.25 0.8 33.5 45 -9.9 14.2
13:15 1025 30.27 855 25.25 1.1 34 43 -10.1 13.9
13:20 1025 30.27 855 25.25 1.5 34.8 44 -9.5 14.8
13:25 1025 30.27 855 25.25 1.9 35.4 43 -9.4 15.2
13:30 1025 30.27 855 25.25 2.1 35.8 43 -9.2 15.4
13:35 1025 30.27 855 25.25 2.6 36.8 42 -9.1 15.7
13:40 1025 30.27 855 25.25 3.2 37.7 40 -9.1 15.5
13:45 1025 30.27 855 25.25 3.7 38.7 37 -9.7 14.5
13:50 1025 30.27 855 25.25 3.7 38.7 38 -9.4 15.1
13:55 1025 30.27 855 25.25 3.9 39.1 37 -9.3 15.2
14:00 1025 30.27 855 25.25 3.7 38.7 41 -8.3 17
14:05 1026 30.3 855 25.25 2.6 36.7 45 -8.1 17.3
14:10 1025 30.27 855 25.25 2.7 36.9 44 -8.4 16.8
14:15 1025 30.27 855 25.25 1.9 35.5 48 -7.9 17.8
14:20 1025 30.27 855 25.25 2 35.6 46 -8.5 16.7
14:25 1025 30.27 855 25.25 2.3 36.2 47 -7.8 17.9
14:30 1026 30.3 855 25.25 2.3 36.1 46 -8.3 17.1
14:35 1026 30.3 855 25.25 2.6 36.6 44 -8.5 16.7
14:40 1026 30.3 855 25.25 2 35.6 48 -7.8 18
14:45 1026 30.3 855 25.25 2.1 35.9 48 -7.8 18
14:50 1026 30.3 855 25.25 2.4 36.4 49 -7.3 18.8
14:55 1026 30.3 855 25.25 2.8 37 44 -8.4 16.9
15:00 1026 30.3 855 25.25 3.2 37.7 44 -8.1 17.5
15:05 1026 30.3 855 25.25 3.5 38.2 43 -8 17.7
15:10 1026 30.3 855 25.25 3.6 38.5 44 -7.6 18.4
15:15 1026 30.3 855 25.25 3.8 38.8 42 -8.1 17.5
15:20 1026 30.3 855 25.25 3.9 39 41 -8.1 17.4
15:25 1026 30.3 855 25.25 4 39.1 42 -7.9 17.8
15:30 1026 30.3 855 25.25 4.1 39.3 42 -7.6 18.3
15:35 1026 30.3 855 25.25 4.1 39.4 43 -7.5 18.5
15:40 1026 30.3 855 25.25 4.2 39.6 43 -7.3 18.8
15:45 1026 30.3 855 25.25 4.2 39.6 43 -7.3 18.9
15:50 1026 30.3 855 25.25 4.2 39.6 43 -7.2 19.1
15:55 1026 30.3 855 25.25 4.2 39.5 45 -6.8 19.7
16:00 1026 30.3 855 25.25 4.4 39.8 44 -6.8 19.7
16:05 1026 30.3 855 25.25 4.4 39.9 44 -6.7 19.9
16:10 1026 30.3 855 25.25 3.9 39 46 -6.7 19.9
16:15 1026 30.3 855 25.25 2.8 37.1 50 -6.5 20.3
16:20 1026 30.3 855 25.25 2.6 36.7 48 -7.3 18.8
16:25 1026 30.3 855 25.25 2.6 36.7 48 -7.2 19
16:30 1026 30.3 855 25.25 2.9 37.3 48 -7.1 19.2
16:35 1026 30.3 855 25.25 2.9 37.2 49 -6.9 19.7
16:40 1026 30.3 855 25.25 2.4 36.4 49 -7.3 18.9
16:45 1026 30.3 855 25.25 2.5 36.5 50 -6.9 19.6
16:50 1026 30.3 855 25.25 2.5 36.6 52 -6.3 20.7
16:55 1026 30.3 855 25.25 2.4 36.3 50 -6.9 19.6
17:00 1026 30.3 855 25.25 2.6 36.6 50 -6.9 19.6
17:05 1026 30.3 855 25.25 2.9 37.2 49 -6.8 19.7
17:10 1026 30.3 855 25.25 3.2 37.8 49 -6.6 20.1
17:15 1026 30.3 855 25.25 3.4 38.1 48 -6.5 20.4
17:20 1026 30.3 855 25.25 3.6 38.4 48 -6.4 20.6
17:25 1026 30.3 855 25.25 3.5 38.3 48 -6.4 20.4
17:30 1026 30.3 855 25.25 3.6 38.4 49 -6.2 20.8
17:35 1026 30.3 855 25.25 3.5 38.3 50 -6.1 21
17:40 1026 30.3 855 25.25 3.5 38.2 49 -6.2 20.9
17:45 1026 30.3 855 25.25 3.4 38.1 51 -5.8 21.5
17:50 1026 30.3 856 25.28 3.4 38.1 50 -6.1 21.1
17:55 1026 30.3 856 25.28 3.4 38 50 -6.2 20.9
18:00 1026 30.3 856 25.28 3.3 37.9 53 -5.4 22.3
18:05 1026 30.3 856 25.28 3 37.4 52 -6 21.1
18:10 1026 30.3 856 25.28 2.4 36.3 51 -6.7 19.9
18:15 1026 30.3 856 25.28 2.1 35.9 53 -6.5 20.4
18:20 1026 30.3 856 25.28 2.4 36.3 53 -6.2 20.8
18:25 1026 30.3 856 25.28 2.5 36.6 52 -6.2 20.8
18:30 1026 30.3 856 25.28 2.4 36.2 54 -5.9 21.3
18:35 1026 30.3 856 25.28 2.2 35.9 54 -6.3 20.6
18:40 1026 30.3 856 25.28 2.5 36.4 54 -6 21.3
18:45 1026 30.3 856 25.28 2.8 37 51 -6.5 20.3
18:50 1027 30.33 856 25.28 3 37.4 51 -6.1 21.1
18:55 1027 30.33 856 25.28 3.2 37.7 50 -6.3 20.7
19:00 1027 30.33 856 25.28 3.3 38 50 -6.1 21
19:05 1027 30.33 856 25.28 3.4 38.1 50 -6.1 21.1
19:10 1027 30.33 856 25.28 3.3 38 52 -5.6 21.9
19:15 1027 30.33 856 25.28 3.2 37.7 52 -5.8 21.6
19:20 1027 30.33 856 25.28 3.1 37.6 51 -6 21.2
19:25 1027 30.33 856 25.28 3.1 37.6 51 -6.1 21.1
19:30 1027 30.33 856 25.28 3.2 37.8 51 -6 21.2
19:35 1027 30.33 856 25.28 3.3 37.9 51 -5.9 21.4
19:40 1027 30.33 856 25.28 3.2 37.8 51 -5.9 21.4
19:45 1027 30.33 856 25.28 3.2 37.8 52 -5.7 21.8
19:50 1027 30.33 856 25.28 3.2 37.7 53 -5.6 22
19:55 1027 30.33 856 25.28 3.1 37.5 53 -5.5 22.1
20:00 1027 30.33 856 25.28 3.1 37.7 53 -5.4 22.2
20:05 1027 30.33 856 25.28 3 37.3 54 -5.5 22.2
20:10 1027 30.33 857 25.31 3 37.3 54 -5.5 22.2
20:15 1027 30.33 857 25.31 2.9 37.2 54 -5.4 22.3
20:20 1027 30.33 857 25.31 3 37.3 54 -5.4 22.3
20:25 1027 30.33 857 25.31 2.9 37.2 54 -5.5 22.1
20:30 1027 30.33 857 25.31 2.8 37 54 -5.6 22
20:35 1027 30.33 857 25.31 2.7 36.9 56 -5.2 22.6
20:40 1027 30.33 857 25.31 2.8 37 55 -5.4 22.2
20:45 1028 30.36 857 25.31 2.9 37.1 56 -5.1 22.9
20:50 1028 30.36 857 25.31 2.5 36.5 57 -5.1 22.8
20:55 1028 30.36 857 25.31 2.6 36.7 58 -5 23.1
21:00 1028 30.36 857 25.31 2.6 36.8 58 -4.8 23.3
21:05 1028 30.36 857 25.31 2.6 36.6 59 -4.6 23.7
21:10 1028 30.36 857 25.31 2.4 36.4 59 -4.9 23.3
21:15 1028 30.36 857 25.31 2.3 36.1 60 -4.7 23.5
21:20 1028 30.36 857 25.31 2.2 36 59 -4.9 23.2
21:25 1028 30.36 857 25.31 2.3 36.2 59 -5 23.1
21:30 1028 30.36 857 25.31 2.4 36.3 58 -5.1 22.8
21:35 1028 30.36 857 25.31 2.4 36.4 57 -5.1 22.7
21:40 1028 30.36 857 25.31 2.4 36.4 57 -5.1 22.7
21:45 1028 30.36 857 25.31 2.3 36.1 58 -5.3 22.5
21:50 1028 30.36 857 25.31 2.2 36 57 -5.3 22.4
21:55 1028 30.36 857 25.31 2.3 36.1 59 -5 23
22:00 1028 30.36 857 25.31 2.1 35.7 58 -5.4 22.3
22:05 1028 30.36 857 25.31 1.8 35.2 60 -5.3 22.5
22:10 1028 30.36 857 25.31 1.6 34.8 59 -5.5 22
22:15 1028 30.36 857 25.31 1.4 34.6 60 -5.4 22.2
22:20 1028 30.36 857 25.31 1.3 34.4 61 -5.3 22.5
22:25 1028 30.36 857 25.31 1.2 34.2 62 -5.3 22.4
22:30 1028 30.36 857 25.31 1.2 34.2 62 -5.4 22.4
22:35 1028 30.36 857 25.31 1.4 34.5 60 -5.5 22.2
22:40 1028 30.36 857 25.31 1.4 34.5 62 -5.1 22.8
22:45 1028 30.36 857 25.31 1.3 34.4 61 -5.4 22.3
22:50 1028 30.36 857 25.31 1.8 35.2 59 -5.4 22.4
22:55 1028 30.36 857 25.31 2 35.6 58 -5.3 22.4
23:00 1028 30.36 857 25.31 1.9 35.4 58 -5.5 22.2
23:05 1028 30.36 857 25.31 1.9 35.4 58 -5.6 22
23:10 1028 30.36 857 25.31 1.7 35 58 -5.7 21.8
23:15 1028 30.36 857 25.31 1.5 34.8 58 -5.8 21.5
23:20 1028 30.36 857 25.31 1.5 34.7 58 -5.9 21.4
23:25 1028 30.36 857 25.31 1.6 34.9 58 -5.8 21.6
23:30 1028 30.36 857 25.31 1.6 34.8 58 -5.7 21.7
23:35 1028 30.36 857 25.31 1.5 34.8 58 -5.9 21.4
23:40 1028 30.36 857 25.31 1.6 34.9 58 -5.9 21.4
23:45 1028 30.36 857 25.31 1.6 34.9 57 -5.9 21.3
23:50 1028 30.36 857 25.31 1.7 35 58 -5.8 21.5
23:55 1028 30.36 857 25.31 1.6 35 58 -5.7 21.8
24:00 1028 30.36 857 25.31 1.7 35.1 58 -5.7 21.7